sensor_id;sensor_type;location;lat;lon;timestamp;pressure;altitude;pressure_sealevel;temperature;humidity
70407;BME280;57821;52.202;0.154;2023-09-07T00:00:40;101924.28;;;21.55;76.58
70407;BME280;57821;52.202;0.154;2023-09-07T00:03:07;101919.09;;;21.52;76.36
70407;BME280;57821;52.202;0.154;2023-09-07T00:05:34;101922.75;;;21.48;76.80
70407;BME280;57821;52.202;0.154;2023-09-07T00:08:00;101928.09;;;21.45;77.05
70407;BME280;57821;52.202;0.154;2023-09-07T00:10:27;101931.66;;;21.44;76.95
70407;BME280;57821;52.202;0.154;2023-09-07T00:12:53;101929.09;;;21.41;76.46
70407;BME280;57821;52.202;0.154;2023-09-07T00:15:20;101928.28;;;21.39;77.30
70407;BME280;57821;52.202;0.154;2023-09-07T00:17:47;101937.06;;;21.39;76.81
70407;BME280;57821;52.202;0.154;2023-09-07T00:20:13;101931.81;;;21.38;76.93
70407;BME280;57821;52.202;0.154;2023-09-07T00:22:40;101927.50;;;21.37;77.02
70407;BME280;57821;52.202;0.154;2023-09-07T00:25:07;101930.16;;;21.35;77.00
70407;BME280;57821;52.202;0.154;2023-09-07T00:27:34;101929.34;;;21.33;77.37
70407;BME280;57821;52.202;0.154;2023-09-07T00:30:02;101930.31;;;21.30;77.95
70407;BME280;57821;52.202;0.154;2023-09-07T00:32:28;101931.25;;;21.28;77.58
70407;BME280;57821;52.202;0.154;2023-09-07T00:34:55;101939.19;;;21.26;77.47
70407;BME280;57821;52.202;0.154;2023-09-07T00:37:22;101930.47;;;21.24;77.48
70407;BME280;57821;52.202;0.154;2023-09-07T00:39:48;101932.28;;;21.22;77.56
70407;BME280;57821;52.202;0.154;2023-09-07T00:42:15;101935.84;;;21.21;77.45
70407;BME280;57821;52.202;0.154;2023-09-07T00:44:42;101934.09;;;21.20;77.51
70407;BME280;57821;52.202;0.154;2023-09-07T00:47:09;101937.75;;;21.16;77.72
70407;BME280;57821;52.202;0.154;2023-09-07T00:49:37;101931.66;;;21.13;77.98
70407;BME280;57821;52.202;0.154;2023-09-07T00:52:05;101932.59;;;21.10;78.34
70407;BME280;57821;52.202;0.154;2023-09-07T00:54:34;101925.59;;;21.09;78.48
70407;BME280;57821;52.202;0.154;2023-09-07T00:57:01;101923.06;;;21.06;78.36
70407;BME280;57821;52.202;0.154;2023-09-07T00:59:28;101928.38;;;21.05;78.20
70407;BME280;57821;52.202;0.154;2023-09-07T01:01:54;101929.28;;;21.04;78.44
70407;BME280;57821;52.202;0.154;2023-09-07T01:04:22;101925.78;;;21.03;78.80
70407;BME280;57821;52.202;0.154;2023-09-07T01:07:03;101916.28;;;20.98;78.05
70407;BME280;57821;52.202;0.154;2023-09-07T01:09:36;101920.59;;;21.00;78.00
70407;BME280;57821;52.202;0.154;2023-09-07T01:12:03;101916.28;;;20.98;78.54
70407;BME280;57821;52.202;0.154;2023-09-07T01:14:30;101921.63;;;20.96;78.56
70407;BME280;57821;52.202;0.154;2023-09-07T01:16:56;101911.16;;;20.91;79.42
70407;BME280;57821;52.202;0.154;2023-09-07T01:19:23;101905.13;;;20.88;79.56
70407;BME280;57821;52.202;0.154;2023-09-07T01:21:51;101913.06;;;20.86;79.41
70407;BME280;57821;52.202;0.154;2023-09-07T01:24:18;101900.88;;;20.84;79.39
70407;BME280;57821;52.202;0.154;2023-09-07T01:26:45;101905.31;;;20.82;79.33
70407;BME280;57821;52.202;0.154;2023-09-07T01:29:12;101894.88;;;20.79;80.16
70407;BME280;57821;52.202;0.154;2023-09-07T01:31:39;101904.59;;;20.75;80.07
70407;BME280;57821;52.202;0.154;2023-09-07T01:34:06;101907.38;;;20.71;80.20
70407;BME280;57821;52.202;0.154;2023-09-07T01:36:32;101901.34;;;20.67;80.71
70407;BME280;57821;52.202;0.154;2023-09-07T01:39:01;101900.47;;;20.67;79.98
70407;BME280;57821;52.202;0.154;2023-09-07T01:41:28;101898.75;;;20.66;80.11
70407;BME280;57821;52.202;0.154;2023-09-07T01:43:55;101890.00;;;20.64;80.28
70407;BME280;57821;52.202;0.154;2023-09-07T01:46:22;101904.06;;;20.63;80.04
70407;BME280;57821;52.202;0.154;2023-09-07T01:48:49;101898.91;;;20.60;80.26
70407;BME280;57821;52.202;0.154;2023-09-07T01:51:15;101893.69;;;20.57;80.51
70407;BME280;57821;52.202;0.154;2023-09-07T01:53:42;101897.25;;;20.56;80.64
70407;BME280;57821;52.202;0.154;2023-09-07T01:56:09;101898.16;;;20.55;80.62
70407;BME280;57821;52.202;0.154;2023-09-07T01:58:36;101896.44;;;20.54;80.13
70407;BME280;57821;52.202;0.154;2023-09-07T02:01:03;101911.38;;;20.53;80.14
70407;BME280;57821;52.202;0.154;2023-09-07T02:03:30;101907.03;;;20.50;80.52
70407;BME280;57821;52.202;0.154;2023-09-07T02:05:56;101895.69;;;20.48;80.32
70407;BME280;57821;52.202;0.154;2023-09-07T02:08:23;101905.38;;;20.48;80.76
70407;BME280;57821;52.202;0.154;2023-09-07T02:10:50;101908.03;;;20.46;80.15
70407;BME280;57821;52.202;0.154;2023-09-07T02:13:16;101902.75;;;20.46;80.67
70407;BME280;57821;52.202;0.154;2023-09-07T02:15:43;101904.56;;;20.44;80.34
70407;BME280;57821;52.202;0.154;2023-09-07T02:18:09;101904.56;;;20.44;80.39
70407;BME280;57821;52.202;0.154;2023-09-07T02:20:36;101903.72;;;20.44;80.18
70407;BME280;57821;52.202;0.154;2023-09-07T02:23:03;101908.13;;;20.43;79.74
70407;BME280;57821;52.202;0.154;2023-09-07T02:25:30;101905.50;;;20.43;80.05
70407;BME280;57821;52.202;0.154;2023-09-07T02:27:57;101904.66;;;20.41;80.34
70407;BME280;57821;52.202;0.154;2023-09-07T02:30:23;101910.81;;;20.40;80.10
70407;BME280;57821;52.202;0.154;2023-09-07T02:32:50;101910.00;;;20.38;80.43
70407;BME280;57821;52.202;0.154;2023-09-07T02:35:16;101907.41;;;20.37;80.39
70407;BME280;57821;52.202;0.154;2023-09-07T02:37:43;101910.09;;;20.35;80.66
70407;BME280;57821;52.202;0.154;2023-09-07T02:40:10;101905.75;;;20.33;80.75
70407;BME280;57821;52.202;0.154;2023-09-07T02:42:37;101910.19;;;20.32;80.58
70407;BME280;57821;52.202;0.154;2023-09-07T02:45:03;101908.41;;;20.31;80.63
70407;BME280;57821;52.202;0.154;2023-09-07T02:47:30;101911.94;;;20.30;80.92
70407;BME280;57821;52.202;0.154;2023-09-07T02:49:57;101911.09;;;20.28;80.51
70407;BME280;57821;52.202;0.154;2023-09-07T02:52:23;101912.00;;;20.27;80.73
70407;BME280;57821;52.202;0.154;2023-09-07T02:54:51;101901.53;;;20.26;81.13
70407;BME280;57821;52.202;0.154;2023-09-07T02:57:17;101900.69;;;20.24;80.92
70407;BME280;57821;52.202;0.154;2023-09-07T02:59:44;101900.69;;;20.24;81.00
70407;BME280;57821;52.202;0.154;2023-09-07T03:02:10;101907.72;;;20.23;81.36
70407;BME280;57821;52.202;0.154;2023-09-07T03:04:37;101910.47;;;20.20;81.43
70407;BME280;57821;52.202;0.154;2023-09-07T03:07:04;101906.97;;;20.18;81.05
70407;BME280;57821;52.202;0.154;2023-09-07T03:09:30;101906.22;;;20.15;81.90
70407;BME280;57821;52.202;0.154;2023-09-07T03:11:57;101900.13;;;20.11;81.98
70407;BME280;57821;52.202;0.154;2023-09-07T03:14:23;101897.53;;;20.09;81.62
70407;BME280;57821;52.202;0.154;2023-09-07T03:16:50;101884.44;;;20.08;81.00
70407;BME280;57821;52.202;0.154;2023-09-07T03:19:17;101889.69;;;20.08;81.76
70407;BME280;57821;52.202;0.154;2023-09-07T03:21:44;101887.97;;;20.07;81.77
70407;BME280;57821;52.202;0.154;2023-09-07T03:24:10;101892.41;;;20.03;82.13
70407;BME280;57821;52.202;0.154;2023-09-07T03:26:37;101889.91;;;19.99;81.72
70407;BME280;57821;52.202;0.154;2023-09-07T03:29:03;101886.47;;;19.97;81.90
70407;BME280;57821;52.202;0.154;2023-09-07T03:31:30;101888.25;;;19.95;81.95
70407;BME280;57821;52.202;0.154;2023-09-07T03:33:57;101883.06;;;19.92;81.75
70407;BME280;57821;52.202;0.154;2023-09-07T03:36:24;101889.19;;;19.92;82.20
70407;BME280;57821;52.202;0.154;2023-09-07T03:38:50;101886.63;;;19.91;81.71
70407;BME280;57821;52.202;0.154;2023-09-07T03:41:17;101880.50;;;19.89;82.11
70407;BME280;57821;52.202;0.154;2023-09-07T03:43:44;101887.50;;;19.90;81.90
70407;BME280;57821;52.202;0.154;2023-09-07T03:46:10;101879.69;;;19.87;81.56
70407;BME280;57821;52.202;0.154;2023-09-07T03:48:37;101880.59;;;19.86;81.56
70407;BME280;57821;52.202;0.154;2023-09-07T03:51:07;101873.59;;;19.85;81.50
70407;BME280;57821;52.202;0.154;2023-09-07T03:53:34;101871.00;;;19.83;81.62
70407;BME280;57821;52.202;0.154;2023-09-07T03:56:18;101875.41;;;19.83;81.43
70407;BME280;57821;52.202;0.154;2023-09-07T03:58:45;101880.69;;;19.81;81.61
70407;BME280;57821;52.202;0.154;2023-09-07T04:01:12;101878.13;;;19.80;80.97
70407;BME280;57821;52.202;0.154;2023-09-07T04:03:39;101884.31;;;19.77;81.44
70407;BME280;57821;52.202;0.154;2023-09-07T04:06:06;101883.53;;;19.74;81.78
70407;BME280;57821;52.202;0.154;2023-09-07T04:08:33;101880.03;;;19.73;81.86
70407;BME280;57821;52.202;0.154;2023-09-07T04:11:03;101866.16;;;19.66;81.78
70407;BME280;57821;52.202;0.154;2023-09-07T04:13:31;101875.78;;;19.67;81.71
70407;BME280;57821;52.202;0.154;2023-09-07T04:15:59;101867.94;;;19.64;81.42
70407;BME280;57821;52.202;0.154;2023-09-07T04:18:26;101873.28;;;19.61;81.22
70407;BME280;57821;52.202;0.154;2023-09-07T04:20:52;101880.44;;;19.56;81.66
70407;BME280;57821;52.202;0.154;2023-09-07T04:23:19;101877.88;;;19.52;81.44
70407;BME280;57821;52.202;0.154;2023-09-07T04:25:45;101878.84;;;19.49;81.30
70407;BME280;57821;52.202;0.154;2023-09-07T04:28:13;101871.88;;;19.45;81.91
70407;BME280;57821;52.202;0.154;2023-09-07T04:30:41;101868.41;;;19.43;81.37
70407;BME280;57821;52.202;0.154;2023-09-07T04:33:08;101870.28;;;19.38;81.37
70407;BME280;57821;52.202;0.154;2023-09-07T04:35:36;101871.22;;;19.34;81.83
70407;BME280;57821;52.202;0.154;2023-09-07T04:38:03;101869.59;;;19.30;81.68
70407;BME280;57821;52.202;0.154;2023-09-07T04:40:31;101871.44;;;19.26;81.20
70407;BME280;57821;52.202;0.154;2023-09-07T04:42:57;101866.22;;;19.23;81.81
70407;BME280;57821;52.202;0.154;2023-09-07T04:45:24;101863.69;;;19.19;81.55
70407;BME280;57821;52.202;0.154;2023-09-07T04:47:51;101863.72;;;19.17;81.19
70407;BME280;57821;52.202;0.154;2023-09-07T04:50:18;101862.94;;;19.14;81.76
70407;BME280;57821;52.202;0.154;2023-09-07T04:52:45;101860.34;;;19.11;81.64
70407;BME280;57821;52.202;0.154;2023-09-07T04:55:11;101861.34;;;19.07;81.97
70407;BME280;57821;52.202;0.154;2023-09-07T04:57:38;101858.78;;;19.04;81.54
70407;BME280;57821;52.202;0.154;2023-09-07T05:00:06;101856.19;;;19.02;81.19
70407;BME280;57821;52.202;0.154;2023-09-07T05:02:33;101858.84;;;19.01;81.42
70407;BME280;57821;52.202;0.154;2023-09-07T05:05:00;101861.53;;;18.98;81.80
70407;BME280;57821;52.202;0.154;2023-09-07T05:07:26;101865.94;;;18.96;81.11
70407;BME280;57821;52.202;0.154;2023-09-07T05:09:53;101855.53;;;18.93;81.73
70407;BME280;57821;52.202;0.154;2023-09-07T05:12:20;101852.94;;;18.90;81.44
70407;BME280;57821;52.202;0.154;2023-09-07T05:14:46;101852.09;;;18.87;81.50
70407;BME280;57821;52.202;0.154;2023-09-07T05:17:13;101848.66;;;18.85;81.80
70407;BME280;57821;52.202;0.154;2023-09-07T05:19:39;101840.81;;;18.82;82.09
70407;BME280;57821;52.202;0.154;2023-09-07T05:22:10;101842.66;;;18.79;82.31
70407;BME280;57821;52.202;0.154;2023-09-07T05:24:40;101841.81;;;18.75;82.24
70407;BME280;57821;52.202;0.154;2023-09-07T05:27:06;101847.16;;;18.72;82.46
70407;BME280;57821;52.202;0.154;2023-09-07T05:29:33;101855.13;;;18.69;82.65
70407;BME280;57821;52.202;0.154;2023-09-07T05:32:00;101851.69;;;18.64;82.30
70407;BME280;57821;52.202;0.154;2023-09-07T05:34:30;101859.63;;;18.63;82.12
70407;BME280;57821;52.202;0.154;2023-09-07T05:36:56;101860.53;;;18.60;82.46
70407;BME280;57821;52.202;0.154;2023-09-07T05:39:23;101854.44;;;18.58;82.44
70407;BME280;57821;52.202;0.154;2023-09-07T05:41:50;101853.63;;;18.56;83.14
70407;BME280;57821;52.202;0.154;2023-09-07T05:44:17;101853.69;;;18.52;83.37
70407;BME280;57821;52.202;0.154;2023-09-07T05:46:43;101856.34;;;18.50;82.82
70407;BME280;57821;52.202;0.154;2023-09-07T05:49:11;101852.84;;;18.48;83.35
70407;BME280;57821;52.202;0.154;2023-09-07T05:51:37;101853.75;;;18.47;83.03
70407;BME280;57821;52.202;0.154;2023-09-07T05:54:04;101858.19;;;18.45;83.05
70407;BME280;57821;52.202;0.154;2023-09-07T05:56:31;101855.56;;;18.43;83.61
70407;BME280;57821;52.202;0.154;2023-09-07T05:58:58;101855.59;;;18.42;83.49
70407;BME280;57821;52.202;0.154;2023-09-07T06:01:24;101848.59;;;18.41;83.12
70407;BME280;57821;52.202;0.154;2023-09-07T06:03:51;101847.75;;;18.40;83.32
70407;BME280;57821;52.202;0.154;2023-09-07T06:06:18;101845.97;;;18.42;83.56
70407;BME280;57821;52.202;0.154;2023-09-07T06:08:45;101849.44;;;18.43;83.85
70407;BME280;57821;52.202;0.154;2023-09-07T06:11:11;101847.69;;;18.45;83.94
70407;BME280;57821;52.202;0.154;2023-09-07T06:13:38;101845.00;;;18.46;83.84
70407;BME280;57821;52.202;0.154;2023-09-07T06:16:04;101845.81;;;18.50;83.68
70407;BME280;57821;52.202;0.154;2023-09-07T06:18:31;101846.69;;;18.51;83.74
70407;BME280;57821;52.202;0.154;2023-09-07T06:20:58;101845.75;;;18.53;83.62
70407;BME280;57821;52.202;0.154;2023-09-07T06:23:25;101851.00;;;18.56;83.15
70407;BME280;57821;52.202;0.154;2023-09-07T06:25:52;101857.03;;;18.60;83.52
70407;BME280;57821;52.202;0.154;2023-09-07T06:28:19;101859.66;;;18.61;83.80
70407;BME280;57821;52.202;0.154;2023-09-07T06:30:45;101860.50;;;18.63;83.92
70407;BME280;57821;52.202;0.154;2023-09-07T06:33:12;101857.78;;;18.66;83.48
70407;BME280;57821;52.202;0.154;2023-09-07T06:35:39;101858.59;;;18.70;83.72
70407;BME280;57821;52.202;0.154;2023-09-07T06:38:05;101863.78;;;18.73;84.13
70407;BME280;57821;52.202;0.154;2023-09-07T06:40:32;101868.94;;;18.77;83.40
70407;BME280;57821;52.202;0.154;2023-09-07T06:42:59;101859.22;;;18.82;83.73
70407;BME280;57821;52.202;0.154;2023-09-07T06:45:26;101859.09;;;18.88;84.31
70407;BME280;57821;52.202;0.154;2023-09-07T06:47:53;101861.59;;;18.93;83.70
70407;BME280;57821;52.202;0.154;2023-09-07T06:50:22;101865.88;;;18.99;83.70
70407;BME280;57821;52.202;0.154;2023-09-07T06:52:49;101873.69;;;19.03;84.10
70407;BME280;57821;52.202;0.154;2023-09-07T06:55:16;101870.94;;;19.09;84.15
70407;BME280;57821;52.202;0.154;2023-09-07T06:57:44;101876.97;;;19.13;83.65
70407;BME280;57821;52.202;0.154;2023-09-07T07:00:11;101882.94;;;19.21;84.04
70407;BME280;57821;52.202;0.154;2023-09-07T07:02:38;101881.06;;;19.26;83.42
70407;BME280;57821;52.202;0.154;2023-09-07T07:05:06;101875.63;;;19.34;84.06
70407;BME280;57821;52.202;0.154;2023-09-07T07:07:33;101873.72;;;19.40;83.33
70407;BME280;57821;52.202;0.154;2023-09-07T07:10:00;101864.84;;;19.47;83.91
70407;BME280;57821;52.202;0.154;2023-09-07T07:12:27;101866.44;;;19.54;84.07
70407;BME280;57821;52.202;0.154;2023-09-07T07:14:54;101864.56;;;19.59;83.94
70407;BME280;57821;52.202;0.154;2023-09-07T07:17:21;101855.69;;;19.63;83.30
70407;BME280;57821;52.202;0.154;2023-09-07T07:19:48;101856.41;;;19.70;83.73
70407;BME280;57821;52.202;0.154;2023-09-07T07:22:14;101865.00;;;19.78;83.30
70407;BME280;57821;52.202;0.154;2023-09-07T07:24:43;101868.28;;;19.86;83.27
70407;BME280;57821;52.202;0.154;2023-09-07T07:27:10;101871.59;;;19.94;83.42
70407;BME280;57821;52.202;0.154;2023-09-07T07:29:36;101875.78;;;20.03;82.97
70407;BME280;57821;52.202;0.154;2023-09-07T07:32:04;101877.28;;;20.13;83.11
70407;BME280;57821;52.202;0.154;2023-09-07T07:34:32;101885.75;;;20.24;82.96
70407;BME280;57821;52.202;0.154;2023-09-07T07:36:59;101873.31;;;20.32;83.02
70407;BME280;57821;52.202;0.154;2023-09-07T07:39:25;101879.16;;;20.43;82.53
70407;BME280;57821;52.202;0.154;2023-09-07T07:41:52;101884.16;;;20.53;82.81
70407;BME280;57821;52.202;0.154;2023-09-07T07:44:19;101876.84;;;20.62;82.33
70407;BME280;57821;52.202;0.154;2023-09-07T07:46:47;101875.75;;;20.71;81.60
70407;BME280;57821;52.202;0.154;2023-09-07T07:49:14;101870.28;;;20.78;81.87
70407;BME280;57821;52.202;0.154;2023-09-07T07:51:41;101875.22;;;20.89;82.26
70407;BME280;57821;52.202;0.154;2023-09-07T07:54:09;101871.41;;;20.99;81.46
70407;BME280;57821;52.202;0.154;2023-09-07T07:56:36;101873.69;;;21.11;81.25
70407;BME280;57821;52.202;0.154;2023-09-07T07:59:04;101866.34;;;21.22;81.43
70407;BME280;57821;52.202;0.154;2023-09-07T08:01:31;101864.22;;;21.35;81.26
70407;BME280;57821;52.202;0.154;2023-09-07T08:03:59;101874.44;;;21.46;80.78
70407;BME280;57821;52.202;0.154;2023-09-07T08:06:30;101865.31;;;21.56;80.57
70407;BME280;57821;52.202;0.154;2023-09-07T08:08:57;101864.13;;;21.66;80.14
70407;BME280;57821;52.202;0.154;2023-09-07T08:11:24;101861.09;;;21.78;80.45
70407;BME280;57821;52.202;0.154;2023-09-07T08:13:51;101862.50;;;21.88;79.91
70407;BME280;57821;52.202;0.154;2023-09-07T08:16:18;101863.78;;;22.03;79.54
70407;BME280;57821;52.202;0.154;2023-09-07T08:18:45;101864.22;;;22.16;79.19
70407;BME280;57821;52.202;0.154;2023-09-07T08:21:14;101860.25;;;22.29;79.00
70407;BME280;57821;52.202;0.154;2023-09-07T08:23:41;101853.69;;;22.40;78.65
70407;BME280;57821;52.202;0.154;2023-09-07T08:26:08;101854.03;;;22.54;78.26
70407;BME280;57821;52.202;0.154;2023-09-07T08:28:37;101850.03;;;22.68;78.65
70407;BME280;57821;52.202;0.154;2023-09-07T08:31:03;101847.84;;;22.80;78.29
70407;BME280;57821;52.202;0.154;2023-09-07T08:33:31;101840.38;;;22.91;77.93
70407;BME280;57821;52.202;0.154;2023-09-07T08:35:58;101842.50;;;23.05;77.22
70407;BME280;57821;52.202;0.154;2023-09-07T08:38:24;101845.44;;;23.19;76.83
70407;BME280;57821;52.202;0.154;2023-09-07T08:40:54;101842.31;;;23.31;76.66
70407;BME280;57821;52.202;0.154;2023-09-07T08:43:21;101840.06;;;23.44;76.02
70407;BME280;57821;52.202;0.154;2023-09-07T08:45:55;101838.69;;;23.57;76.09
70407;BME280;57821;52.202;0.154;2023-09-07T08:48:29;101840.84;;;23.69;74.88
70407;BME280;57821;52.202;0.154;2023-09-07T08:50:57;101839.53;;;23.80;74.74
70407;BME280;57821;52.202;0.154;2023-09-07T08:53:24;101836.56;;;23.87;74.20
70407;BME280;57821;52.202;0.154;2023-09-07T08:55:51;101839.41;;;24.03;73.44
70407;BME280;57821;52.202;0.154;2023-09-07T08:58:18;101831.81;;;24.15;73.94
70407;BME280;57821;52.202;0.154;2023-09-07T09:00:45;101834.81;;;24.28;72.81
70407;BME280;57821;52.202;0.154;2023-09-07T09:03:12;101834.25;;;24.40;73.41
70407;BME280;57821;52.202;0.154;2023-09-07T09:05:39;101835.44;;;24.53;73.09
70407;BME280;57821;52.202;0.154;2023-09-07T09:08:06;101827.84;;;24.65;71.73
70407;BME280;57821;52.202;0.154;2023-09-07T09:10:38;101828.16;;;24.77;71.82
70407;BME280;57821;52.202;0.154;2023-09-07T09:13:05;101826.38;;;24.98;73.44
70407;BME280;57821;52.202;0.154;2023-09-07T09:15:31;101824.31;;;25.22;72.10
70407;BME280;57821;52.202;0.154;2023-09-07T09:18:08;101831.41;;;25.59;72.53
70407;BME280;57821;52.202;0.154;2023-09-07T09:20:37;101839.00;;;26.01;70.56
70407;BME280;57821;52.202;0.154;2023-09-07T09:23:04;101832.97;;;26.49;68.98
70407;BME280;57821;52.202;0.154;2023-09-07T09:25:31;101831.81;;;27.03;68.59
70407;BME280;57821;52.202;0.154;2023-09-07T09:27:58;101822.25;;;27.62;65.36
70407;BME280;57821;52.202;0.154;2023-09-07T09:30:25;101829.25;;;28.24;65.60
70407;BME280;57821;52.202;0.154;2023-09-07T09:32:51;101827.56;;;28.80;61.12
70407;BME280;57821;52.202;0.154;2023-09-07T09:35:19;101828.41;;;29.35;60.26
70407;BME280;57821;52.202;0.154;2023-09-07T09:37:46;101832.00;;;29.88;57.22
70407;BME280;57821;52.202;0.154;2023-09-07T09:40:14;101828.34;;;30.41;56.22
70407;BME280;57821;52.202;0.154;2023-09-07T09:42:44;101827.97;;;30.96;53.79
70407;BME280;57821;52.202;0.154;2023-09-07T09:45:11;101821.44;;;31.37;50.90
70407;BME280;57821;52.202;0.154;2023-09-07T09:47:40;101818.00;;;31.83;50.19
70407;BME280;57821;52.202;0.154;2023-09-07T09:50:11;101809.72;;;32.32;48.35
70407;BME280;57821;52.202;0.154;2023-09-07T09:52:38;101809.38;;;32.70;47.28
70407;BME280;57821;52.202;0.154;2023-09-07T09:55:07;101803.84;;;33.05;45.41
70407;BME280;57821;52.202;0.154;2023-09-07T09:57:35;101796.34;;;33.30;44.00
70407;BME280;57821;52.202;0.154;2023-09-07T10:00:03;101795.53;;;33.51;43.20
70407;BME280;57821;52.202;0.154;2023-09-07T10:02:39;101797.31;;;33.61;42.83
70407;BME280;57821;52.202;0.154;2023-09-07T10:05:07;101800.84;;;33.62;42.61
70407;BME280;57821;52.202;0.154;2023-09-07T10:07:44;101794.25;;;33.66;41.96
70407;BME280;57821;52.202;0.154;2023-09-07T10:10:15;101791.34;;;33.58;41.87
70407;BME280;57821;52.202;0.154;2023-09-07T10:12:42;101790.44;;;33.48;43.36
70407;BME280;57821;52.202;0.154;2023-09-07T10:15:22;101781.56;;;33.57;42.65
70407;BME280;57821;52.202;0.154;2023-09-07T10:17:49;101776.59;;;33.52;42.24
70407;BME280;57821;52.202;0.154;2023-09-07T10:20:19;101772.06;;;33.53;41.96
70407;BME280;57821;52.202;0.154;2023-09-07T10:22:46;101770.34;;;33.52;41.02
70407;BME280;57821;52.202;0.154;2023-09-07T10:25:20;101762.06;;;33.55;41.90
70407;BME280;57821;52.202;0.154;2023-09-07T10:27:48;101765.31;;;33.58;40.82
70407;BME280;57821;52.202;0.154;2023-09-07T10:30:14;101764.41;;;33.69;41.26
70407;BME280;57821;52.202;0.154;2023-09-07T10:32:41;101757.47;;;33.87;40.56
70407;BME280;57821;52.202;0.154;2023-09-07T10:35:16;101747.28;;;34.11;40.38
70407;BME280;57821;52.202;0.154;2023-09-07T10:37:46;101738.75;;;34.37;39.86
70407;BME280;57821;52.202;0.154;2023-09-07T10:40:19;101736.31;;;34.64;39.27
70407;BME280;57821;52.202;0.154;2023-09-07T10:42:45;101751.72;;;34.92;38.29
70407;BME280;57821;52.202;0.154;2023-09-07T10:45:14;101738.44;;;35.20;36.79
70407;BME280;57821;52.202;0.154;2023-09-07T10:47:44;101741.56;;;35.44;36.59
70407;BME280;57821;52.202;0.154;2023-09-07T10:50:11;101737.72;;;35.56;37.66
70407;BME280;57821;52.202;0.154;2023-09-07T10:52:39;101726.94;;;35.75;36.38
70407;BME280;57821;52.202;0.154;2023-09-07T10:55:07;101729.28;;;35.98;35.83
70407;BME280;57821;52.202;0.154;2023-09-07T10:57:43;101728.78;;;36.12;35.16
70407;BME280;57821;52.202;0.154;2023-09-07T11:00:11;101725.22;;;36.11;34.36
70407;BME280;57821;52.202;0.154;2023-09-07T11:02:38;101725.69;;;36.07;34.39
70407;BME280;57821;52.202;0.154;2023-09-07T11:05:05;101728.81;;;36.02;34.35
70407;BME280;57821;52.202;0.154;2023-09-07T11:07:33;101716.94;;;35.86;34.36
70407;BME280;57821;52.202;0.154;2023-09-07T11:10:00;101719.56;;;35.68;34.28
70407;BME280;57821;52.202;0.154;2023-09-07T11:12:26;101719.00;;;35.45;34.48
70407;BME280;57821;52.202;0.154;2023-09-07T11:14:53;101717.59;;;35.22;34.09
70407;BME280;57821;52.202;0.154;2023-09-07T11:17:26;101704.06;;;35.02;34.21
70407;BME280;57821;52.202;0.154;2023-09-07T11:19:52;101709.88;;;34.88;34.23
70407;BME280;57821;52.202;0.154;2023-09-07T11:22:19;101702.19;;;34.74;33.97
70407;BME280;57821;52.202;0.154;2023-09-07T11:24:46;101696.19;;;34.51;34.30
70407;BME280;57821;52.202;0.154;2023-09-07T11:27:12;101696.09;;;34.32;34.37
70407;BME280;57821;52.202;0.154;2023-09-07T11:29:39;101695.44;;;34.09;34.83
70407;BME280;57821;52.202;0.154;2023-09-07T11:32:09;101691.94;;;33.88;34.13
70407;BME280;57821;52.202;0.154;2023-09-07T11:34:47;101691.41;;;33.53;34.74
70407;BME280;57821;52.202;0.154;2023-09-07T11:37:14;101692.75;;;33.26;34.80
70407;BME280;57821;52.202;0.154;2023-09-07T11:39:40;101683.06;;;33.03;35.00
70407;BME280;57821;52.202;0.154;2023-09-07T11:42:07;101683.16;;;32.81;35.08
70407;BME280;57821;52.202;0.154;2023-09-07T11:44:34;101678.66;;;32.59;35.57
70407;BME280;57821;52.202;0.154;2023-09-07T11:47:00;101671.03;;;32.43;36.44
70407;BME280;57821;52.202;0.154;2023-09-07T11:49:27;101672.13;;;32.30;36.48
70407;BME280;57821;52.202;0.154;2023-09-07T11:51:53;101670.06;;;32.22;35.97
70407;BME280;57821;52.202;0.154;2023-09-07T11:54:20;101667.59;;;32.08;36.71
70407;BME280;57821;52.202;0.154;2023-09-07T11:56:47;101666.28;;;31.91;36.48
70407;BME280;57821;52.202;0.154;2023-09-07T11:59:13;101662.09;;;31.76;36.54
70407;BME280;57821;52.202;0.154;2023-09-07T12:01:40;101669.28;;;31.64;37.19
70407;BME280;57821;52.202;0.154;2023-09-07T12:04:06;101653.88;;;31.55;37.23
70407;BME280;57821;52.202;0.154;2023-09-07T12:06:33;101649.22;;;31.46;37.60
70407;BME280;57821;52.202;0.154;2023-09-07T12:09:05;101641.16;;;31.35;38.28
70407;BME280;57821;52.202;0.154;2023-09-07T12:11:32;101649.66;;;31.29;38.59
70407;BME280;57821;52.202;0.154;2023-09-07T12:13:59;101640.41;;;31.22;38.59
70407;BME280;57821;52.202;0.154;2023-09-07T12:16:26;101642.47;;;31.18;38.25
70407;BME280;57821;52.202;0.154;2023-09-07T12:18:54;101639.16;;;31.15;38.38
70407;BME280;57821;52.202;0.154;2023-09-07T12:21:21;101643.03;;;31.11;38.20
70407;BME280;57821;52.202;0.154;2023-09-07T12:23:47;101635.34;;;31.06;37.89
70407;BME280;57821;52.202;0.154;2023-09-07T12:26:14;101637.38;;;31.02;38.09
70407;BME280;57821;52.202;0.154;2023-09-07T12:28:41;101633.22;;;30.98;37.53
70407;BME280;57821;52.202;0.154;2023-09-07T12:31:07;101647.81;;;30.94;37.60
70407;BME280;57821;52.202;0.154;2023-09-07T12:33:34;101641.84;;;30.91;38.08
70407;BME280;57821;52.202;0.154;2023-09-07T12:36:01;101644.53;;;30.91;38.80
70407;BME280;57821;52.202;0.154;2023-09-07T12:38:27;101637.56;;;30.88;38.22
70407;BME280;57821;52.202;0.154;2023-09-07T12:40:54;101644.13;;;30.84;37.86
70407;BME280;57821;52.202;0.154;2023-09-07T12:43:21;101641.66;;;30.81;38.54
70407;BME280;57821;52.202;0.154;2023-09-07T12:45:48;101635.69;;;30.78;38.50
70407;BME280;57821;52.202;0.154;2023-09-07T12:48:14;101639.22;;;30.78;38.97
70407;BME280;57821;52.202;0.154;2023-09-07T12:50:41;101635.59;;;30.79;37.66